Time;durP1;ratioP1;P1;durP2;ratioP2;P2;SDS_P1;SDS_P2;PMS_P1;PMS_P2;Temp;Humidity;BMP_temperature;BMP_pressure;BME280_temperature;BME280_humidity;BME280_pressure;Samples;Min_cycle;Max_cycle;Signal;HPM_P1;HPM_P2
2022/07/25 00:04:19;;;;;;;4.57;3.42;;;19.90;56.50;21.90;93885.00;;;;10489182;28;45278;-65
2022/07/25 00:09:41;;;;;;;6.75;3.95;;;19.90;56.60;21.90;93884.00;;;;10476437;28;45228;-66
2022/07/25 00:15:02;;;;;;;4.88;3.75;;;19.90;56.70;21.90;93872.00;;;;10490342;28;45314;-65
2022/07/25 00:20:23;;;;;;;5.72;3.80;;;19.90;56.80;21.90;93881.00;;;;10476255;28;45345;-65
2022/07/25 00:25:45;;;;;;;5.32;3.83;;;19.80;56.80;21.90;93873.00;;;;10475630;28;45085;-65
2022/07/25 00:31:06;;;;;;;4.78;3.53;;;19.80;56.90;21.90;93867.00;;;;10464213;28;45242;-65
2022/07/25 00:36:26;;;;;;;4.93;3.67;;;19.80;57.00;21.90;93863.00;;;;10485646;28;45276;-65
2022/07/25 00:41:48;;;;;;;5.57;3.92;;;19.90;57.20;21.80;93870.00;;;;10476976;28;45170;-64
2022/07/25 00:47:09;;;;;;;5.45;3.92;;;19.80;57.30;21.80;93862.00;;;;10475441;28;45178;-64
2022/07/25 00:52:30;;;;;;;4.80;3.60;;;19.80;57.30;21.80;93866.00;;;;10474733;28;45208;-65
2022/07/25 00:57:52;;;;;;;4.95;3.90;;;19.80;57.60;21.80;93865.00;;;;10472945;28;45223;-65
2022/07/25 01:03:13;;;;;;;5.38;4.00;;;19.80;57.70;21.80;93855.00;;;;10483598;28;45203;-65
2022/07/25 01:08:34;;;;;;;6.18;4.07;;;19.80;57.80;21.80;93856.00;;;;10463038;28;45146;-65
2022/07/25 01:13:56;;;;;;;7.47;4.15;;;19.80;58.00;21.90;93848.00;;;;10474714;28;45303;-65
2022/07/25 01:19:16;;;;;;;5.22;3.83;;;19.80;58.10;21.80;93845.00;;;;10496233;28;45399;-63
2022/07/25 01:24:39;;;;;;;5.28;4.03;;;19.80;58.20;21.80;93848.00;;;;10461508;28;45288;-65
2022/07/25 01:30:00;;;;;;;6.20;4.05;;;19.80;58.40;21.80;93834.00;;;;10474903;28;45164;-65
2022/07/25 01:35:21;;;;;;;4.70;3.88;;;19.80;58.40;21.80;93846.00;;;;10481723;28;45287;-65
2022/07/25 01:40:43;;;;;;;4.85;3.75;;;19.80;58.70;21.80;93848.00;;;;10481702;28;45932;-65
2022/07/25 01:46:04;;;;;;;6.03;3.92;;;19.80;58.80;21.80;93843.00;;;;10480784;28;45118;-66
2022/07/25 01:51:25;;;;;;;5.07;4.07;;;19.80;59.60;21.80;93837.00;;;;10481692;28;45279;-65
2022/07/25 01:56:46;;;;;;;6.43;4.25;;;19.80;59.10;21.80;93839.00;;;;10480750;28;45347;-65
2022/07/25 02:02:09;;;;;;;6.22;4.43;;;19.70;59.10;21.80;93833.00;;;;10468984;28;45251;-65
2022/07/25 02:07:30;;;;;;;5.82;4.35;;;19.80;59.30;21.80;93839.00;;;;10479983;28;45162;-64
2022/07/25 02:12:51;;;;;;;5.85;4.43;;;19.80;59.40;21.80;93818.00;;;;10480041;28;45172;-65
2022/07/25 02:18:12;;;;;;;6.40;4.50;;;19.80;59.40;21.80;93829.00;;;;10485666;28;45060;-65
2022/07/25 02:23:33;;;;;;;5.45;4.30;;;19.80;59.50;21.80;93819.00;;;;10479646;28;45184;-65
2022/07/25 02:28:55;;;;;;;7.28;4.25;;;19.80;59.50;21.80;93829.00;;;;10479780;28;45160;-65
2022/07/25 02:34:15;;;;;;;6.80;4.50;;;19.70;59.50;21.80;93823.00;;;;10453741;28;45173;-66
2022/07/25 02:39:36;;;;;;;6.82;4.32;;;19.70;59.70;21.80;93809.00;;;;10478529;28;45089;-65
2022/07/25 02:44:58;;;;;;;6.30;4.30;;;19.70;59.70;21.80;93811.00;;;;10478208;28;45284;-65
2022/07/25 02:50:18;;;;;;;6.15;4.45;;;19.70;59.60;21.80;93812.00;;;;10479008;28;45613;-66
2022/07/25 02:55:39;;;;;;;5.72;4.32;;;19.70;59.60;21.70;93809.00;;;;10478114;28;45466;-64
2022/07/25 03:01:01;;;;;;;5.65;4.18;;;19.70;59.70;21.80;93809.00;;;;10480198;28;45336;-64
2022/07/25 03:06:21;;;;;;;6.15;4.30;;;19.70;59.80;21.70;93808.00;;;;10479061;28;45227;-63
2022/07/25 03:11:42;;;;;;;6.22;4.32;;;19.70;59.80;21.70;93800.00;;;;10479588;28;45418;-64
2022/07/25 03:17:04;;;;;;;6.55;4.22;;;19.70;59.80;21.70;93793.00;;;;10487495;28;45307;-64
2022/07/25 03:22:25;;;;;;;6.53;4.60;;;19.70;59.80;21.70;93792.00;;;;10479308;28;45112;-64
2022/07/25 03:27:46;;;;;;;7.97;4.65;;;19.70;59.70;21.70;93776.00;;;;10478916;28;45189;-64
2022/07/25 03:33:08;;;;;;;6.20;4.38;;;19.70;59.70;21.70;93791.00;;;;10478794;28;45117;-64
2022/07/25 03:38:29;;;;;;;6.38;4.57;;;19.60;59.60;21.70;93787.00;;;;10478266;28;45175;-64
2022/07/25 03:43:50;;;;;;;6.63;4.55;;;19.70;59.60;21.70;93790.00;;;;10478649;28;45165;-65
2022/07/25 03:49:11;;;;;;;5.82;4.50;;;19.60;59.50;21.70;93784.00;;;;10466956;28;45202;-64
2022/07/25 03:54:32;;;;;;;7.22;4.63;;;19.60;59.40;21.70;93792.00;;;;10477469;28;45160;-65
2022/07/25 03:59:52;;;;;;;7.57;4.72;;;19.60;59.40;21.70;93784.00;;;;10478102;28;45156;-67
2022/07/25 04:05:14;;;;;;;6.15;4.75;;;19.60;59.40;21.70;93775.00;;;;10464055;28;45270;-65
2022/07/25 04:10:34;;;;;;;6.07;4.68;;;19.60;59.40;21.60;93786.00;;;;10477898;28;45227;-65
2022/07/25 04:15:55;;;;;;;6.20;4.50;;;19.60;59.40;21.60;93780.00;;;;10485669;28;45189;-65
2022/07/25 04:21:17;;;;;;;6.38;4.53;;;19.60;59.50;21.60;93775.00;;;;10477738;28;45322;-65
2022/07/25 04:26:38;;;;;;;5.82;4.43;;;19.60;59.50;21.60;93767.00;;;;10476577;28;45186;-64
2022/07/25 04:31:58;;;;;;;5.38;4.25;;;19.60;59.60;21.60;93780.00;;;;10477275;28;45296;-64
2022/07/25 04:37:20;;;;;;;6.07;4.53;;;19.50;59.70;21.60;93773.00;;;;10476593;28;45271;-65
2022/07/25 04:42:41;;;;;;;6.70;4.85;;;19.60;59.70;21.60;93778.00;;;;10451997;28;45240;-64
2022/07/25 04:48:01;;;;;;;5.85;4.80;;;19.60;59.90;21.60;93773.00;;;;10476291;28;45507;-65
2022/07/25 04:53:24;;;;;;;5.85;4.70;;;19.60;60.10;21.60;93771.00;;;;10476762;28;45151;-65
2022/07/25 04:58:44;;;;;;;6.95;4.50;;;19.60;60.20;21.60;93763.00;;;;10475779;28;45203;-64
2022/07/25 05:04:05;;;;;;;6.82;4.75;;;19.60;60.60;21.60;93770.00;;;;10488530;28;45227;-65
2022/07/25 05:09:27;;;;;;;6.18;4.80;;;19.50;60.80;21.60;93777.00;;;;10483260;28;45165;-64
2022/07/25 05:14:48;;;;;;;5.78;4.70;;;19.60;61.10;21.60;93778.00;;;;10469323;28;45144;-64
2022/07/25 05:20:10;;;;;;;5.88;4.40;;;19.60;61.40;21.60;93771.00;;;;10486452;28;45402;-65
2022/07/25 05:25:32;;;;;;;6.60;4.30;;;19.60;61.90;21.60;93781.00;;;;10482643;28;45116;-65
2022/07/25 05:30:53;;;;;;;5.07;4.13;;;19.50;61.90;21.60;93782.00;;;;10482037;28;45243;-64
2022/07/25 05:36:13;;;;;;;6.38;4.80;;;19.50;62.10;21.60;93784.00;;;;10481810;28;45356;-64
2022/07/25 05:41:35;;;;;;;5.55;4.25;;;19.50;62.30;21.60;93778.00;;;;10481015;28;45306;-66
2022/07/25 05:46:56;;;;;;;4.88;4.03;;;19.50;62.20;21.60;93771.00;;;;10481876;28;45155;-65
2022/07/25 05:52:17;;;;;;;6.05;4.38;;;19.50;62.40;21.60;93777.00;;;;10471003;28;45426;-64
2022/07/25 05:57:38;;;;;;;6.28;4.18;;;19.50;62.40;21.60;93778.00;;;;10481464;28;45280;-64
2022/07/25 06:03:00;;;;;;;6.38;4.82;;;19.50;62.50;21.60;93776.00;;;;10480391;28;45242;-64
2022/07/25 06:08:20;;;;;;;5.80;4.53;;;19.50;62.40;21.60;93761.00;;;;10480457;28;45247;-65
2022/07/25 06:13:42;;;;;;;6.13;4.25;;;19.50;62.30;21.60;93768.00;;;;10481432;28;45053;-64
2022/07/25 06:19:03;;;;;;;4.93;3.83;;;19.50;62.30;21.60;93762.00;;;;10495683;28;45197;-65
2022/07/25 06:24:23;;;;;;;4.68;4.10;;;19.50;62.10;21.60;93754.00;;;;10465934;28;45515;-64
2022/07/25 06:29:45;;;;;;;4.72;3.78;;;19.50;62.10;21.60;93750.00;;;;10481108;28;45099;-64
2022/07/25 06:35:07;;;;;;;5.18;4.00;;;19.50;61.80;21.70;93746.00;;;;10480458;28;45235;-64
2022/07/25 06:40:28;;;;;;;6.78;4.13;;;19.50;61.60;21.70;93754.00;;;;10480608;28;45243;-65
2022/07/25 06:45:50;;;;;;;5.93;4.13;;;19.50;61.50;21.70;93756.00;;;;10467824;28;45235;-64
2022/07/25 06:51:11;;;;;;;5.28;4.05;;;19.50;61.60;21.70;93750.00;;;;10479170;28;45204;-65
2022/07/25 06:56:32;;;;;;;5.72;4.68;;;19.50;61.50;21.70;93749.00;;;;10479788;28;45269;-65
2022/07/25 07:01:53;;;;;;;5.47;4.25;;;19.60;61.40;21.70;93756.00;;;;10468481;28;45225;-66
2022/07/25 07:07:15;;;;;;;5.75;4.60;;;19.60;61.10;21.70;93756.00;;;;10482925;28;45356;-63
2022/07/25 07:12:35;;;;;;;5.40;4.13;;;19.50;61.20;21.80;93752.00;;;;10472596;28;45323;-63
2022/07/25 07:17:57;;;;;;;6.35;4.63;;;19.70;61.90;21.80;93765.00;;;;10496061;28;45256;-62
2022/07/25 07:23:18;;;;;;;6.03;4.30;;;19.70;61.00;21.80;93745.00;;;;10467780;28;45193;-62
2022/07/25 07:28:39;;;;;;;5.38;4.18;;;19.70;61.10;21.80;93769.00;;;;10478129;28;45446;-62
2022/07/25 07:34:01;;;;;;;5.18;4.00;;;19.70;61.10;21.80;93754.00;;;;10478249;28;45206;-63
2022/07/25 07:39:22;;;;;;;5.07;4.00;;;19.70;61.10;21.80;93759.00;;;;10470008;28;45269;-63
2022/07/25 07:44:43;;;;;;;5.30;3.97;;;19.70;61.10;21.80;93764.00;;;;10484237;28;45199;-62
2022/07/25 07:50:06;;;;;;;5.03;4.03;;;19.70;61.00;21.80;93765.00;;;;10470220;28;45269;-62
2022/07/25 07:55:47;;;;;;;5.88;4.30;;;19.70;61.00;21.80;93768.00;;;;10470871;28;45174;-67
2022/07/25 08:01:08;;;;;;;6.05;4.35;;;19.70;60.90;21.90;93751.00;;;;10469336;28;45172;-61
2022/07/25 08:06:30;;;;;;;5.80;4.10;;;19.90;60.70;22.00;93768.00;;;;10497698;28;45453;-63
2022/07/25 08:11:51;;;;;;;10.82;4.30;;;19.80;60.60;21.90;93767.00;;;;10459773;28;45240;-63
2022/07/25 08:17:11;;;;;;;9.38;4.00;;;19.80;60.70;22.00;93764.00;;;;10473123;28;45444;-65
2022/07/25 08:22:38;;;;;;;10.52;4.25;;;19.90;60.70;22.00;93764.00;;;;10471841;28;45272;-65
2022/07/25 08:27:59;;;;;;;9.15;4.32;;;19.90;60.40;22.00;93756.00;;;;10458379;28;45372;-66
2022/07/25 08:33:20;;;;;;;8.80;4.05;;;19.80;60.50;22.00;93772.00;;;;10470580;28;45121;-65
2022/07/25 08:38:42;;;;;;;7.30;4.35;;;19.90;60.50;22.10;93765.00;;;;10470198;28;45198;-66
2022/07/25 08:44:03;;;;;;;5.78;3.72;;;19.90;60.60;22.10;93758.00;;;;10457442;28;45175;-65
2022/07/25 08:49:24;;;;;;;5.53;4.00;;;19.90;60.40;22.10;93766.00;;;;10469578;28;45238;-65
2022/07/25 08:54:47;;;;;;;6.70;4.32;;;20.00;60.60;22.10;93758.00;;;;10470121;28;45328;-65
2022/07/25 09:00:09;;;;;;;10.93;5.03;;;20.00;60.50;22.10;93764.00;;;;10484386;28;45207;-65
2022/07/25 09:05:31;;;;;;;8.60;4.65;;;20.00;60.40;22.20;93767.00;;;;10481876;28;45322;-66
2022/07/25 09:10:53;;;;;;;6.65;4.38;;;20.00;60.40;22.20;93768.00;;;;10469702;28;45501;-65
2022/07/25 09:16:14;;;;;;;7.43;4.50;;;20.00;60.40;22.20;93765.00;;;;10468451;28;45217;-66
2022/07/25 09:21:35;;;;;;;6.35;4.38;;;20.00;60.70;22.20;93770.00;;;;10469414;28;45563;-65
2022/07/25 09:27:00;;;;;;;8.35;5.05;;;20.10;60.70;22.20;93756.00;;;;10468396;28;45311;-63
2022/07/25 09:32:23;;;;;;;7.47;4.47;;;20.10;60.60;22.20;93764.00;;;;10469297;28;45319;-63
2022/07/25 09:37:43;;;;;;;6.47;4.15;;;20.10;60.40;22.30;93770.00;;;;10457295;28;45273;-63
2022/07/25 09:43:06;;;;;;;7.47;4.30;;;20.20;60.30;22.30;93758.00;;;;10469496;28;45261;-63
2022/07/25 09:48:27;;;;;;;6.55;4.13;;;20.10;60.10;22.30;93767.00;;;;10469201;28;45215;-62
2022/07/25 09:53:47;;;;;;;7.57;4.10;;;20.20;60.00;22.30;93764.00;;;;10472332;28;45156;-63
2022/07/25 09:59:09;;;;;;;7.43;4.25;;;20.20;59.70;22.30;93757.00;;;;10491671;28;45301;-64
2022/07/25 10:04:44;;;;;;;7.93;4.35;;;20.20;59.10;22.30;93767.00;;;;10487468;28;45263;-65
2022/07/25 10:10:06;;;;;;;6.57;4.18;;;20.10;59.10;22.30;93765.00;;;;10475190;28;45332;-62
2022/07/25 10:15:45;;;;;;;5.95;3.95;;;20.20;59.20;22.30;93756.00;;;;10474040;28;45141;-62
2022/07/25 10:21:12;;;;;;;8.50;4.03;;;20.20;58.90;22.40;93749.00;;;;10487475;28;45216;-63
2022/07/25 10:26:35;;;;;;;6.33;3.67;;;20.20;59.10;22.30;93749.00;;;;10475117;28;45326;-63
2022/07/25 10:32:06;;;;;;;5.22;3.53;;;20.20;58.90;22.30;93760.00;;;;10476511;28;45187;-63
2022/07/25 10:37:28;;;;;;;5.97;3.60;;;20.20;59.00;22.30;93745.00;;;;10476174;28;45413;-63
2022/07/25 10:42:49;;;;;;;5.25;3.70;;;20.20;59.00;22.30;93741.00;;;;10475967;28;45176;-63
2022/07/25 10:48:22;;;;;;;5.45;3.75;;;20.20;58.90;22.30;93754.00;;;;10475832;28;45263;-61
2022/07/25 10:53:47;;;;;;;5.35;3.40;;;20.10;58.90;22.20;93747.00;;;;10475963;28;45317;-62
2022/07/25 10:59:07;;;;;;;5.80;3.55;;;20.10;58.90;22.30;93726.00;;;;10484799;28;45139;-62
2022/07/25 11:04:29;;;;;;;5.35;3.50;;;20.20;58.90;22.40;93742.00;;;;10478214;28;45187;-62
2022/07/25 11:09:57;;;;;;;6.65;3.88;;;20.20;58.80;22.30;93739.00;;;;10474600;28;45319;-62
2022/07/25 11:15:23;;;;;;;6.13;3.70;;;20.20;58.70;22.20;93725.00;;;;10471866;28;45202;-63
2022/07/25 11:20:45;;;;;;;6.60;3.37;;;20.10;58.50;22.20;93730.00;;;;10473351;28;45307;-63
2022/07/25 11:26:09;;;;;;;7.88;3.40;;;20.10;58.60;22.20;93736.00;;;;10472457;28;45300;-62
2022/07/25 11:31:29;;;;;;;5.45;3.42;;;20.10;58.60;22.20;93732.00;;;;10474911;28;45258;-62
2022/07/25 11:36:54;;;;;;;6.38;3.60;;;20.00;58.50;22.20;93733.00;;;;10471378;28;45148;-61
2022/07/25 11:42:18;;;;;;;6.65;3.70;;;20.10;58.60;22.20;93733.00;;;;10476082;28;45311;-62
2022/07/25 11:47:39;;;;;;;5.63;3.65;;;20.10;58.80;22.20;93710.00;;;;10477918;28;45166;-61
2022/07/25 11:53:02;;;;;;;6.00;3.50;;;20.00;58.80;22.20;93714.00;;;;10478533;28;45252;-61
2022/07/25 11:58:24;;;;;;;6.95;3.83;;;20.10;58.90;22.30;93717.00;;;;10481675;28;45175;-61
2022/07/25 12:03:45;;;;;;;6.38;3.45;;;20.10;58.80;22.30;93718.00;;;;10479845;28;45213;-61
2022/07/25 12:09:16;;;;;;;6.15;3.38;;;20.10;58.80;22.30;93720.00;;;;10477378;28;45496;-61
2022/07/25 12:14:43;;;;;;;6.35;3.50;;;20.20;58.80;22.30;93686.00;;;;10476831;28;45219;-62
2022/07/25 12:20:12;;;;;;;5.50;3.05;;;20.10;58.80;22.40;93676.00;;;;10477805;28;45263;-66
2022/07/25 12:25:37;;;;;;;6.25;2.95;;;20.20;58.60;22.50;93691.00;;;;10476870;28;45182;-64
2022/07/25 12:30:58;;;;;;;4.80;3.45;;;20.30;58.50;22.50;93700.00;;;;10477828;28;45126;-64
2022/07/25 12:36:18;;;;;;;4.60;3.65;;;20.30;58.40;22.50;93688.00;;;;10472324;28;45283;-64
2022/07/25 12:41:41;;;;;;;5.05;3.20;;;20.30;58.40;22.50;93686.00;;;;10469708;28;45199;-65
2022/07/25 12:47:02;;;;;;;5.68;3.30;;;20.40;58.40;22.50;93682.00;;;;10469973;28;45406;-64
2022/07/25 12:52:22;;;;;;;4.05;3.08;;;20.40;58.40;22.60;93669.00;;;;10470075;28;45279;-64
2022/07/25 12:57:45;;;;;;;6.10;3.63;;;20.40;58.40;22.60;93671.00;;;;10468435;28;45368;-64
2022/07/25 13:03:06;;;;;;;4.90;3.28;;;20.40;58.20;22.60;93673.00;;;;10475330;28;45224;-64
2022/07/25 13:08:26;;;;;;;4.57;3.28;;;20.40;58.10;22.60;93675.00;;;;10467685;28;45157;-63
2022/07/25 13:13:48;;;;;;;5.38;3.10;;;20.40;58.10;22.60;93664.00;;;;10485252;28;45298;-64
2022/07/25 13:19:09;;;;;;;4.18;3.08;;;20.40;58.10;22.60;93653.00;;;;10469153;28;45175;-64
2022/07/25 13:24:29;;;;;;;4.63;2.92;;;20.50;58.10;22.70;93646.00;;;;10455620;28;45204;-64
2022/07/25 13:29:53;;;;;;;5.70;3.53;;;20.50;58.10;22.70;93652.00;;;;10474569;28;45083;-63
2022/07/25 13:35:14;;;;;;;4.35;2.97;;;20.50;57.90;22.70;93642.00;;;;10475740;28;45322;-61
2022/07/25 13:40:39;;;;;;;6.45;3.40;;;20.60;58.00;22.70;93638.00;;;;10477593;28;45166;-61
2022/07/25 13:46:01;;;;;;;6.47;3.42;;;20.60;58.00;22.80;93645.00;;;;10480090;28;44999;-61
2022/07/25 13:51:22;;;;;;;4.25;2.92;;;20.60;57.80;22.80;93643.00;;;;10478664;28;45301;-61
2022/07/25 13:56:42;;;;;;;5.38;3.60;;;20.60;57.70;22.80;93641.00;;;;10478627;28;45284;-61
2022/07/25 14:02:04;;;;;;;4.18;3.03;;;20.60;57.50;22.90;93651.00;;;;10487782;28;45542;-62
2022/07/25 14:07:24;;;;;;;4.15;2.50;;;20.70;57.20;22.90;93633.00;;;;10473737;28;45240;-62
2022/07/25 14:12:45;;;;;;;4.85;3.05;;;20.70;57.00;22.90;93631.00;;;;10469805;28;45206;-62
2022/07/25 14:18:08;;;;;;;4.38;3.20;;;20.70;56.90;22.90;93634.00;;;;10473467;28;45198;-62
2022/07/25 14:23:29;;;;;;;4.95;3.33;;;20.70;57.00;22.90;93629.00;;;;10473712;28;45164;-62
2022/07/25 14:28:49;;;;;;;4.43;2.97;;;20.70;57.20;22.90;93625.00;;;;10473706;28;45278;-62
2022/07/25 14:34:14;;;;;;;3.80;3.00;;;20.70;57.90;22.90;93635.00;;;;10473581;28;45380;-61
2022/07/25 14:39:35;;;;;;;4.57;3.03;;;20.70;57.20;22.90;93620.00;;;;10472567;28;45302;-61
2022/07/25 14:44:55;;;;;;;6.38;3.30;;;20.80;57.30;22.90;93625.00;;;;10473308;28;45335;-61
2022/07/25 14:50:18;;;;;;;5.60;3.00;;;20.80;57.20;22.90;93624.00;;;;10472534;28;45200;-61
2022/07/25 14:55:38;;;;;;;5.38;3.13;;;20.80;57.20;23.00;93621.00;;;;10472095;28;45231;-62
2022/07/25 15:00:59;;;;;;;4.70;3.10;;;20.80;57.20;22.90;93607.00;;;;10484121;28;45224;-62
2022/07/25 15:06:21;;;;;;;6.57;3.38;;;20.80;57.20;22.90;93614.00;;;;10486004;28;45542;-62
2022/07/25 15:11:41;;;;;;;6.85;3.08;;;20.80;57.10;22.90;93619.00;;;;10472596;28;45281;-62
2022/07/25 15:17:02;;;;;;;4.53;3.25;;;20.80;57.70;22.90;93614.00;;;;10472197;28;45247;-62
2022/07/25 15:22:24;;;;;;;6.13;3.05;;;20.90;57.10;23.00;93622.00;;;;10472025;28;45536;-62
2022/07/25 15:27:44;;;;;;;5.65;3.25;;;20.80;57.20;23.00;93613.00;;;;10471664;28;45241;-62
2022/07/25 15:33:05;;;;;;;4.18;3.20;;;20.80;57.20;23.00;93598.00;;;;10471424;28;45222;-62
2022/07/25 15:38:27;;;;;;;3.78;2.70;;;20.90;57.30;23.00;93605.00;;;;10475265;28;45379;-63
2022/07/25 15:43:48;;;;;;;4.40;2.75;;;20.90;57.00;23.00;93600.00;;;;10471565;28;45420;-63
2022/07/25 15:49:09;;;;;;;4.47;2.90;;;20.90;56.90;23.00;93592.00;;;;10469235;28;45152;-62
2022/07/25 15:54:31;;;;;;;4.57;2.78;;;20.90;57.00;23.10;93597.00;;;;10467646;28;45237;-64
2022/07/25 15:59:51;;;;;;;3.83;2.97;;;20.90;56.80;23.10;93590.00;;;;10472162;28;45438;-64
2022/07/25 16:05:12;;;;;;;3.70;2.67;;;21.00;56.80;23.10;93583.00;;;;10484435;28;45349;-63
2022/07/25 16:10:35;;;;;;;4.38;2.88;;;21.00;57.50;23.10;93591.00;;;;10470583;28;45254;-63
2022/07/25 16:15:55;;;;;;;4.93;2.63;;;21.10;56.80;23.10;93601.00;;;;10470304;28;45284;-60
2022/07/25 16:21:16;;;;;;;4.95;2.50;;;21.10;56.80;23.30;93599.00;;;;10465802;28;45395;-63
2022/07/25 16:26:38;;;;;;;3.80;2.80;;;21.10;57.50;23.30;93599.00;;;;10468783;28;45487;-60
2022/07/25 16:31:59;;;;;;;4.03;2.70;;;21.20;56.90;23.30;93598.00;;;;10469982;28;45214;-62
2022/07/25 16:37:20;;;;;;;3.75;2.47;;;21.20;57.00;23.40;93604.00;;;;10469230;28;45248;-64
2022/07/25 16:42:43;;;;;;;4.53;2.80;;;21.30;57.10;23.40;93600.00;;;;10470535;28;45148;-64
2022/07/25 16:48:06;;;;;;;4.22;2.80;;;21.30;56.70;23.40;93605.00;;;;10469311;28;45208;-64
2022/07/25 16:53:26;;;;;;;3.53;2.60;;;21.30;57.00;23.40;93615.00;;;;10468911;28;45270;-64
2022/07/25 16:58:48;;;;;;;4.13;2.97;;;21.30;56.90;23.30;93607.00;;;;10464052;28;45209;-65
2022/07/25 17:04:09;;;;;;;3.63;2.67;;;21.20;56.70;23.30;93636.00;;;;10488849;28;45149;-64
2022/07/25 17:09:29;;;;;;;4.50;2.63;;;21.20;56.60;23.30;93624.00;;;;10494195;28;45272;-65
2022/07/25 17:14:51;;;;;;;3.30;2.47;;;21.20;56.90;23.30;93618.00;;;;10468923;28;45113;-64
2022/07/25 17:20:13;;;;;;;3.72;2.80;;;21.20;56.10;23.30;93637.00;;;;10486446;28;45425;-65
2022/07/25 17:25:34;;;;;;;3.90;2.63;;;21.20;55.90;23.40;93622.00;;;;10485582;28;45300;-65
2022/07/25 17:30:56;;;;;;;3.35;2.40;;;21.20;56.00;23.40;93611.00;;;;10477198;28;45214;-61
2022/07/25 17:36:17;;;;;;;4.95;2.42;;;21.20;55.00;23.40;93620.00;;;;10481992;28;45484;-60
2022/07/25 17:41:37;;;;;;;3.80;2.42;;;21.20;55.50;23.40;93616.00;;;;10483325;28;45179;-61
2022/07/25 17:46:59;;;;;;;3.47;2.13;;;21.20;54.10;23.30;93606.00;;;;10481675;28;45208;-61
2022/07/25 17:52:20;;;;;;;3.22;2.35;;;21.20;54.40;23.30;93602.00;;;;10481141;28;45700;-61
2022/07/25 17:57:41;;;;;;;3.20;2.10;;;21.20;54.60;23.30;93612.00;;;;10481553;28;45316;-61
2022/07/25 18:03:04;;;;;;;3.30;2.30;;;21.20;54.40;23.30;93622.00;;;;10490398;28;45236;-61
2022/07/25 18:08:29;;;;;;;3.22;2.35;;;21.20;54.90;23.30;93618.00;;;;10473510;28;45245;-61
2022/07/25 18:13:49;;;;;;;3.20;2.30;;;21.20;54.20;23.30;93635.00;;;;10484623;28;45191;-60
2022/07/25 18:19:11;;;;;;;3.40;2.30;;;21.20;54.30;23.30;93636.00;;;;10474286;28;45217;-61
2022/07/25 18:24:32;;;;;;;3.20;2.40;;;21.20;54.30;23.30;93623.00;;;;10473340;28;45172;-63
2022/07/25 18:29:53;;;;;;;3.40;2.22;;;21.20;54.10;23.30;93603.00;;;;10473854;28;45261;-60
2022/07/25 18:35:15;;;;;;;3.35;2.15;;;21.20;54.40;23.30;93619.00;;;;10474720;28;45230;-61
2022/07/25 18:40:35;;;;;;;3.63;2.30;;;21.20;54.10;23.30;93628.00;;;;10473564;28;45290;-61
2022/07/25 18:45:56;;;;;;;2.47;1.88;;;21.20;53.90;23.30;93636.00;;;;10464923;28;45212;-60
2022/07/25 18:51:17;;;;;;;4.10;2.50;;;21.10;54.30;23.30;93650.00;;;;10478316;28;45409;-60
2022/07/25 18:56:38;;;;;;;2.85;2.05;;;21.20;54.80;23.30;93660.00;;;;10478679;28;45233;-60
2022/07/25 19:01:59;;;;;;;3.05;2.20;;;21.10;54.50;23.30;93658.00;;;;10462771;28;45374;-60
2022/07/25 19:07:21;;;;;;;3.20;2.00;;;21.10;54.40;23.20;93666.00;;;;10487180;28;45231;-61
2022/07/25 19:12:42;;;;;;;3.00;2.00;;;21.10;54.30;23.20;93672.00;;;;10479627;28;45450;-61
2022/07/25 19:18:04;;;;;;;3.45;2.05;;;21.00;54.80;23.20;93679.00;;;;10478963;28;45383;-61
2022/07/25 19:23:26;;;;;;;3.72;2.30;;;21.00;54.60;23.20;93680.00;;;;10477134;28;45310;-61
2022/07/25 19:28:47;;;;;;;2.72;2.03;;;21.10;54.60;23.20;93698.00;;;;10475900;28;45132;-60
2022/07/25 19:34:08;;;;;;;2.67;2.10;;;21.00;54.90;23.20;93718.00;;;;10472673;28;45281;-60
2022/07/25 19:39:30;;;;;;;2.45;2.00;;;21.10;54.90;23.10;93740.00;;;;10462983;28;45429;-60
2022/07/25 19:44:51;;;;;;;2.85;2.22;;;21.00;54.90;23.10;93760.00;;;;10421090;28;45203;-60
2022/07/25 19:50:12;;;;;;;2.60;2.00;;;21.00;55.00;23.10;93775.00;;;;10475845;28;45222;-61
2022/07/25 19:55:33;;;;;;;3.33;2.33;;;20.90;55.00;23.00;93787.00;;;;10471194;28;45145;-60
2022/07/25 20:00:54;;;;;;;2.78;2.15;;;20.90;55.10;23.00;93802.00;;;;10470553;28;45391;-61
2022/07/25 20:06:15;;;;;;;2.65;1.85;;;20.90;55.20;23.00;93809.00;;;;10472938;28;45239;-60
2022/07/25 20:11:39;;;;;;;3.15;1.73;;;20.80;55.30;23.00;93813.00;;;;10472151;28;45484;-60
2022/07/25 20:16:59;;;;;;;2.80;2.08;;;20.80;55.60;23.00;93824.00;;;;10471959;28;45410;-61
2022/07/25 20:22:20;;;;;;;2.65;2.17;;;20.80;55.70;22.90;93824.00;;;;10471713;28;45202;-61
2022/07/25 20:27:42;;;;;;;3.38;2.00;;;20.80;55.70;22.90;93820.00;;;;10471835;28;45524;-60
2022/07/25 20:33:02;;;;;;;2.85;2.20;;;20.80;55.50;22.90;93823.00;;;;10471642;28;45237;-60
2022/07/25 20:38:27;;;;;;;4.65;1.98;;;20.70;55.50;22.90;93819.00;;;;10471026;28;45442;-60
2022/07/25 20:43:48;;;;;;;2.35;1.90;;;20.70;55.60;22.90;93823.00;;;;10470683;28;45255;-60
2022/07/25 20:49:10;;;;;;;3.17;2.35;;;20.70;55.50;22.80;93820.00;;;;10470985;28;45457;-60
2022/07/25 20:54:30;;;;;;;3.00;2.10;;;20.70;55.20;22.80;93828.00;;;;10470212;28;45145;-60
2022/07/25 20:59:53;;;;;;;3.97;2.10;;;20.70;55.30;22.80;93842.00;;;;10471060;28;45124;-60
2022/07/25 21:05:13;;;;;;;2.92;2.00;;;20.60;55.40;22.80;93846.00;;;;10474910;28;45247;-60
2022/07/25 21:10:34;;;;;;;2.85;2.17;;;20.70;54.90;22.80;93837.00;;;;10470858;28;45547;-60
2022/07/25 21:15:55;;;;;;;3.78;2.30;;;20.60;54.60;22.80;93846.00;;;;10469823;28;45203;-60
2022/07/25 21:21:17;;;;;;;3.58;2.38;;;20.60;54.40;22.80;93824.00;;;;10470555;28;45254;-60
2022/07/25 21:26:38;;;;;;;3.67;2.40;;;20.60;54.40;22.80;93832.00;;;;10469568;28;45222;-62
2022/07/25 21:32:00;;;;;;;4.53;2.17;;;20.60;54.60;22.70;93844.00;;;;10470285;28;45252;-60
2022/07/25 21:37:21;;;;;;;2.30;1.85;;;20.60;54.70;22.70;93844.00;;;;10470696;28;45156;-60
2022/07/25 21:42:42;;;;;;;3.05;1.70;;;20.60;54.70;22.70;93843.00;;;;10458033;28;45507;-60
2022/07/25 21:48:05;;;;;;;3.03;1.67;;;20.60;54.30;22.70;93857.00;;;;10486312;27;45221;-60
2022/07/25 21:53:25;;;;;;;2.60;1.73;;;20.60;54.00;22.70;93862.00;;;;10475806;28;45410;-60
2022/07/25 21:58:46;;;;;;;1.83;1.48;;;20.60;54.00;22.60;93861.00;;;;10475957;28;45171;-60
2022/07/25 22:04:08;;;;;;;2.28;1.67;;;20.50;54.00;22.60;93877.00;;;;10477153;28;45452;-60
2022/07/25 22:09:29;;;;;;;1.83;1.20;;;20.50;53.80;22.60;93858.00;;;;10476671;28;45397;-60
2022/07/25 22:14:50;;;;;;;2.17;1.30;;;20.50;53.70;22.60;93862.00;;;;10461791;28;45167;-61
2022/07/25 22:20:13;;;;;;;2.20;1.30;;;20.50;53.40;22.60;93855.00;;;;10476572;28;45414;-61
2022/07/25 22:25:33;;;;;;;2.33;1.40;;;20.50;53.20;22.60;93860.00;;;;10475271;28;45176;-60
2022/07/25 22:30:56;;;;;;;2.58;1.25;;;20.50;53.10;22.50;93890.00;;;;10475912;28;45293;-61
2022/07/25 22:36:17;;;;;;;2.28;1.13;;;20.40;53.80;22.50;93875.00;;;;10463990;28;45274;-60
2022/07/25 22:41:38;;;;;;;1.60;1.00;;;20.40;54.20;22.50;93887.00;;;;10475396;28;45204;-60
2022/07/25 22:46:59;;;;;;;1.65;1.17;;;20.40;53.80;22.50;93902.00;;;;10491330;28;45198;-60
2022/07/25 22:52:21;;;;;;;2.95;1.00;;;20.40;53.70;22.50;93905.00;;;;10463050;28;45539;-60
2022/07/25 22:57:41;;;;;;;1.67;1.13;;;20.40;53.80;22.50;93905.00;;;;10473649;28;45133;-61
2022/07/25 23:03:02;;;;;;;2.20;1.30;;;20.40;53.90;22.50;93892.00;;;;10485833;28;45435;-60
2022/07/25 23:08:23;;;;;;;1.67;1.10;;;20.30;54.40;22.60;93899.00;;;;10461459;28;45166;-61
2022/07/25 23:13:44;;;;;;;2.42;1.38;;;20.40;54.30;22.60;93904.00;;;;10474140;28;45721;-60
2022/07/25 23:19:05;;;;;;;2.42;1.45;;;20.40;54.30;22.60;93933.00;;;;10473670;28;45160;-60
2022/07/25 23:24:27;;;;;;;1.33;1.00;;;20.40;55.10;22.60;93935.00;;;;10488522;28;45104;-60
2022/07/25 23:29:47;;;;;;;2.28;1.20;;;20.40;54.30;22.60;93933.00;;;;10473477;28;45198;-61
2022/07/25 23:35:09;;;;;;;2.17;1.13;;;20.40;54.00;22.60;93940.00;;;;10473257;28;45485;-60